Aérodrome :
LOGIN :

S'inscrire | Disclaimer

   EN    FR    IT 

 










Légende :    VFR   VFR Marginal   IFR   IFR Intensif   IFR Très Intensif
Visi : 
Plafond : 
>= 8 km
>= 3000ft
5 à 8 km
1000 à 3000 ft
1500m à 5 km
500 à 1000 ft
800 à 1500m
200 à 500 ft
< 800m
< 200 ft
Symboles :   Orages  Brouillard  Fortes neiges  Fortes précipitations  Vent > 20 kt
SIGMETs :   Divers  Orages  Givrage  Turbulence  Onde Orograph.  Cendres Volcan.






- Altitude de l'aérodrome : 267 ft


EGDR - Culdrose Navy

DERNIER METAR :
  • 171050Z 33014KT 9999 FEW011 SCT030 10/03 Q1021 TEMPO SCT022 RMK BLU TEMPO WHT

METARs EXPIRÉS :
  • 171020Z 33015KT 9999 FEW029 BKN/// 10/03 Q1021 TEMPO SCT022 RMK BLU TEMPO WHT
  • 170950Z 34017KT 9999 FEW010 SCT030 09/03 Q1021 TEMPO SCT022 RMK BLU TEMPO WHT
  • 170920Z 34016KT 9999 FEW010 SCT030 10/04 Q1022 TEMPO SCT022 RMK BLU TEMPO WHT
  • 170850Z 33015KT 9999 FEW010 SCT030 10/03 Q1021 TEMPO SCT022 RMK BLU TEMPO WHT
  • 170820Z 33015KT 9999 FEW010 SCT030 09/04 Q1021 TEMPO SCT022 RMK BLU TEMPO WHT
  • 170750Z 33012KT 9999 FEW010 SCT030 09/04 Q1021 TEMPO SCT022 RMK BLU TEMPO WHT
  • 170720Z AUTO 34010KT 9999 BKN044/// 09/04 Q1021
  • 170650Z AUTO 34011KT 9999 BKN022/// BKN040/// 08/04 Q1021
  • 170620Z AUTO 34010KT 9999 SCT023/// OVC031/// 08/04 Q1021

TAF TAF EGDR
Valide du 17 à 09h jusqu'au 17 à 18h UTC


170725Z 1709/1718 33015G25KT 9999 FEW010 SCT030
PROB30
TEMPO 1709/1711 7000 -SHRA SCT022
BECMG 1716/1718 8000 -RA FEW010 BKN018
TEMPO 1716/1718 3500 RADZ SCT005 BKN016



MET'MAP, la Météo Aéronautique d'un coup d'oeil ! - Copyright ORBIFLY Décembre 2007 - Disclaimer

ORBIFLY MET'MAP TEAM :

Programmation & Développement : Alexandra Zaïnal
Sur une idée originale de : Baudouin d'Aumeries
Soutien technique & logistique : Manuel Goepfert
Assistance : Marc-Olivier Méhu




SOURCES & CREDITS :

   NOAA